sensor_id;sensor_type;location;lat;lon;timestamp;temperature;humidity
24326;DHT22;12448;45.532;5.290;2022-09-06T00:01:41;24.50;76.40
24326;DHT22;12448;45.532;5.290;2022-09-06T00:04:07;24.50;76.30
24326;DHT22;12448;45.532;5.290;2022-09-06T00:06:33;24.50;76.30
24326;DHT22;12448;45.532;5.290;2022-09-06T00:08:59;24.50;76.20
24326;DHT22;12448;45.532;5.290;2022-09-06T00:11:25;24.50;76.20
24326;DHT22;12448;45.532;5.290;2022-09-06T00:13:51;24.80;76.20
24326;DHT22;12448;45.532;5.290;2022-09-06T00:16:19;24.40;76.00
24326;DHT22;12448;45.532;5.290;2022-09-06T00:18:45;24.40;76.00
24326;DHT22;12448;45.532;5.290;2022-09-06T00:21:25;24.40;76.00
24326;DHT22;12448;45.532;5.290;2022-09-06T00:23:52;24.40;75.90
24326;DHT22;12448;45.532;5.290;2022-09-06T00:26:19;24.40;75.80
24326;DHT22;12448;45.532;5.290;2022-09-06T00:28:45;24.40;75.70
24326;DHT22;12448;45.532;5.290;2022-09-06T00:31:17;24.40;75.60
24326;DHT22;12448;45.532;5.290;2022-09-06T00:33:43;24.40;75.60
24326;DHT22;12448;45.532;5.290;2022-09-06T00:36:10;24.40;75.60
24326;DHT22;12448;45.532;5.290;2022-09-06T00:38:36;24.40;75.70
24326;DHT22;12448;45.532;5.290;2022-09-06T00:41:03;24.40;75.60
24326;DHT22;12448;45.532;5.290;2022-09-06T00:43:29;24.40;75.60
24326;DHT22;12448;45.532;5.290;2022-09-06T00:45:55;24.40;75.50
24326;DHT22;12448;45.532;5.290;2022-09-06T00:48:22;24.40;75.50
24326;DHT22;12448;45.532;5.290;2022-09-06T00:50:50;24.30;75.60
24326;DHT22;12448;45.532;5.290;2022-09-06T00:53:18;24.30;75.70
24326;DHT22;12448;45.532;5.290;2022-09-06T00:55:44;24.30;75.70
24326;DHT22;12448;45.532;5.290;2022-09-06T00:58:10;24.30;75.80
24326;DHT22;12448;45.532;5.290;2022-09-06T01:00:36;24.30;75.90
24326;DHT22;12448;45.532;5.290;2022-09-06T01:03:03;24.30;76.00
24326;DHT22;12448;45.532;5.290;2022-09-06T01:05:41;24.30;76.00
24326;DHT22;12448;45.532;5.290;2022-09-06T01:08:24;24.30;76.10
24326;DHT22;12448;45.532;5.290;2022-09-06T01:14:04;24.30;76.20
24326;DHT22;12448;45.532;5.290;2022-09-06T01:16:42;24.20;76.40
24326;DHT22;12448;45.532;5.290;2022-09-06T01:19:29;24.20;76.70
24326;DHT22;12448;45.532;5.290;2022-09-06T01:30:56;24.00;77.60
24326;DHT22;12448;45.532;5.290;2022-09-06T01:36:53;24.00;77.70
24326;DHT22;12448;45.532;5.290;2022-09-06T01:39:31;24.00;77.90
24326;DHT22;12448;45.532;5.290;2022-09-06T01:42:01;24.00;78.00
24326;DHT22;12448;45.532;5.290;2022-09-06T01:44:29;23.90;78.00
24326;DHT22;12448;45.532;5.290;2022-09-06T01:47:23;24.00;78.10
24326;DHT22;12448;45.532;5.290;2022-09-06T01:55:40;24.00;78.30
24326;DHT22;12448;45.532;5.290;2022-09-06T02:01:05;23.90;78.40
24326;DHT22;12448;45.532;5.290;2022-09-06T02:03:37;23.90;78.50
24326;DHT22;12448;45.532;5.290;2022-09-06T02:06:11;23.90;78.70
24326;DHT22;12448;45.532;5.290;2022-09-06T02:08:42;23.90;78.70
24326;DHT22;12448;45.532;5.290;2022-09-06T02:11:09;23.90;78.90
24326;DHT22;12448;45.532;5.290;2022-09-06T02:13:41;23.90;79.00
24326;DHT22;12448;45.532;5.290;2022-09-06T02:16:10;23.90;79.00
24326;DHT22;12448;45.532;5.290;2022-09-06T02:18:44;23.80;79.10
24326;DHT22;12448;45.532;5.290;2022-09-06T02:21:13;23.80;79.20
24326;DHT22;12448;45.532;5.290;2022-09-06T02:23:42;23.80;79.30
24326;DHT22;12448;45.532;5.290;2022-09-06T02:26:20;23.80;79.40
24326;DHT22;12448;45.532;5.290;2022-09-06T02:28:48;23.80;79.40
24326;DHT22;12448;45.532;5.290;2022-09-06T02:31:30;23.80;79.50
24326;DHT22;12448;45.532;5.290;2022-09-06T02:33:58;23.90;79.60
24326;DHT22;12448;45.532;5.290;2022-09-06T02:36:23;23.80;79.60
24326;DHT22;12448;45.532;5.290;2022-09-06T02:38:49;23.80;79.50
24326;DHT22;12448;45.532;5.290;2022-09-06T02:41:18;23.80;79.60
24326;DHT22;12448;45.532;5.290;2022-09-06T02:43:47;23.90;79.60
24326;DHT22;12448;45.532;5.290;2022-09-06T02:46:13;23.90;79.70
24326;DHT22;12448;45.532;5.290;2022-09-06T02:48:39;23.80;79.60
24326;DHT22;12448;45.532;5.290;2022-09-06T02:51:06;23.80;79.70
24326;DHT22;12448;45.532;5.290;2022-09-06T02:53:33;23.90;79.70
24326;DHT22;12448;45.532;5.290;2022-09-06T02:55:59;23.80;79.60
24326;DHT22;12448;45.532;5.290;2022-09-06T02:58:25;23.80;79.60
24326;DHT22;12448;45.532;5.290;2022-09-06T03:00:51;23.90;79.70
24326;DHT22;12448;45.532;5.290;2022-09-06T03:03:18;23.80;79.60
24326;DHT22;12448;45.532;5.290;2022-09-06T03:05:50;23.80;79.70
24326;DHT22;12448;45.532;5.290;2022-09-06T03:08:17;23.90;79.70
24326;DHT22;12448;45.532;5.290;2022-09-06T03:10:53;23.80;79.60
24326;DHT22;12448;45.532;5.290;2022-09-06T03:13:21;23.80;79.70
24326;DHT22;12448;45.532;5.290;2022-09-06T03:15:55;23.80;79.80
24326;DHT22;12448;45.532;5.290;2022-09-06T03:18:26;23.80;79.70
24326;DHT22;12448;45.532;5.290;2022-09-06T03:20:56;23.80;79.70
24326;DHT22;12448;45.532;5.290;2022-09-06T03:23:24;23.70;79.70
24326;DHT22;12448;45.532;5.290;2022-09-06T03:25:50;23.70;79.80
24326;DHT22;12448;45.532;5.290;2022-09-06T03:28:16;23.70;80.70
24326;DHT22;12448;45.532;5.290;2022-09-06T03:30:46;23.80;80.00
24326;DHT22;12448;45.532;5.290;2022-09-06T03:33:13;23.80;80.00
24326;DHT22;12448;45.532;5.290;2022-09-06T03:35:38;23.60;79.80
24326;DHT22;12448;45.532;5.290;2022-09-06T03:38:04;23.70;80.00
24326;DHT22;12448;45.532;5.290;2022-09-06T03:40:30;23.80;80.10
24326;DHT22;12448;45.532;5.290;2022-09-06T03:42:56;23.80;80.10
24326;DHT22;12448;45.532;5.290;2022-09-06T03:45:21;23.70;80.10
24326;DHT22;12448;45.532;5.290;2022-09-06T03:47:47;23.70;80.20
24326;DHT22;12448;45.532;5.290;2022-09-06T03:50:12;23.70;80.20
24326;DHT22;12448;45.532;5.290;2022-09-06T03:52:38;23.70;80.40
24326;DHT22;12448;45.532;5.290;2022-09-06T03:55:05;23.70;80.50
24326;DHT22;12448;45.532;5.290;2022-09-06T03:57:31;23.60;80.50
24326;DHT22;12448;45.532;5.290;2022-09-06T03:59:57;23.70;80.60
24326;DHT22;12448;45.532;5.290;2022-09-06T04:02:22;23.60;80.60
24326;DHT22;12448;45.532;5.290;2022-09-06T04:04:48;23.60;80.70
24326;DHT22;12448;45.532;5.290;2022-09-06T04:07:13;23.60;80.80
24326;DHT22;12448;45.532;5.290;2022-09-06T04:09:39;23.60;80.90
24326;DHT22;12448;45.532;5.290;2022-09-06T04:12:05;23.60;81.00
24326;DHT22;12448;45.532;5.290;2022-09-06T04:14:34;23.60;81.10
24326;DHT22;12448;45.532;5.290;2022-09-06T04:16:59;23.60;81.10
24326;DHT22;12448;45.532;5.290;2022-09-06T04:19:25;23.60;81.10
24326;DHT22;12448;45.532;5.290;2022-09-06T04:21:50;23.60;81.00
24326;DHT22;12448;45.532;5.290;2022-09-06T04:24:16;23.60;81.10
24326;DHT22;12448;45.532;5.290;2022-09-06T04:26:41;23.60;81.10
24326;DHT22;12448;45.532;5.290;2022-09-06T04:29:07;23.70;81.20
24326;DHT22;12448;45.532;5.290;2022-09-06T04:31:33;23.60;81.10
24326;DHT22;12448;45.532;5.290;2022-09-06T04:33:59;23.70;81.20
24326;DHT22;12448;45.532;5.290;2022-09-06T04:36:24;23.70;81.20
24326;DHT22;12448;45.532;5.290;2022-09-06T04:38:50;23.60;81.30
24326;DHT22;12448;45.532;5.290;2022-09-06T04:41:16;23.60;81.40
24326;DHT22;12448;45.532;5.290;2022-09-06T04:43:43;23.60;81.60
24326;DHT22;12448;45.532;5.290;2022-09-06T04:48:50;23.70;81.60
24326;DHT22;12448;45.532;5.290;2022-09-06T04:51:17;23.60;81.70
24326;DHT22;12448;45.532;5.290;2022-09-06T04:53:43;23.60;81.70
24326;DHT22;12448;45.532;5.290;2022-09-06T04:56:20;23.70;81.70
24326;DHT22;12448;45.532;5.290;2022-09-06T04:58:47;23.70;81.70
24326;DHT22;12448;45.532;5.290;2022-09-06T05:01:14;23.60;81.60
24326;DHT22;12448;45.532;5.290;2022-09-06T05:03:39;23.60;81.60
24326;DHT22;12448;45.532;5.290;2022-09-06T05:06:08;23.70;81.60
24326;DHT22;12448;45.532;5.290;2022-09-06T05:08:38;23.60;81.60
24326;DHT22;12448;45.532;5.290;2022-09-06T05:11:05;23.70;81.60
24326;DHT22;12448;45.532;5.290;2022-09-06T05:13:31;23.70;81.60
24326;DHT22;12448;45.532;5.290;2022-09-06T05:16:01;23.70;81.60
24326;DHT22;12448;45.532;5.290;2022-09-06T05:18:30;23.70;81.50
24326;DHT22;12448;45.532;5.290;2022-09-06T05:20:56;23.70;81.50
24326;DHT22;12448;45.532;5.290;2022-09-06T05:23:22;23.70;81.50
24326;DHT22;12448;45.532;5.290;2022-09-06T05:25:48;24.10;81.70
24326;DHT22;12448;45.532;5.290;2022-09-06T05:28:14;23.70;81.50
24326;DHT22;12448;45.532;5.290;2022-09-06T05:30:41;23.70;81.40
24326;DHT22;12448;45.532;5.290;2022-09-06T05:33:07;23.70;81.50
24326;DHT22;12448;45.532;5.290;2022-09-06T05:35:33;23.60;81.60
24326;DHT22;12448;45.532;5.290;2022-09-06T05:37:59;23.60;81.60
24326;DHT22;12448;45.532;5.290;2022-09-06T05:40:25;23.70;81.70
24326;DHT22;12448;45.532;5.290;2022-09-06T05:42:51;23.60;81.60
24326;DHT22;12448;45.532;5.290;2022-09-06T05:45:17;23.60;81.70
24326;DHT22;12448;45.532;5.290;2022-09-06T05:47:42;23.60;81.60
24326;DHT22;12448;45.532;5.290;2022-09-06T05:50:08;23.60;81.70
24326;DHT22;12448;45.532;5.290;2022-09-06T05:52:38;23.60;81.70
24326;DHT22;12448;45.532;5.290;2022-09-06T05:55:05;23.60;81.80
24326;DHT22;12448;45.532;5.290;2022-09-06T05:57:31;23.60;81.80
24326;DHT22;12448;45.532;5.290;2022-09-06T05:59:57;23.60;81.70
24326;DHT22;12448;45.532;5.290;2022-09-06T06:02:23;23.60;81.60
24326;DHT22;12448;45.532;5.290;2022-09-06T06:04:49;23.60;81.60
24326;DHT22;12448;45.532;5.290;2022-09-06T06:07:16;23.60;81.70
24326;DHT22;12448;45.532;5.290;2022-09-06T06:09:43;23.70;81.60
24326;DHT22;12448;45.532;5.290;2022-09-06T06:12:09;23.70;81.60
24326;DHT22;12448;45.532;5.290;2022-09-06T06:14:34;23.90;81.70
24326;DHT22;12448;45.532;5.290;2022-09-06T06:17:00;23.70;81.50
24326;DHT22;12448;45.532;5.290;2022-09-06T06:19:26;23.70;81.50
24326;DHT22;12448;45.532;5.290;2022-09-06T06:21:52;23.80;81.50
24326;DHT22;12448;45.532;5.290;2022-09-06T06:24:20;23.80;81.40
24326;DHT22;12448;45.532;5.290;2022-09-06T06:26:46;23.80;81.30
24326;DHT22;12448;45.532;5.290;2022-09-06T06:29:12;23.80;81.30
24326;DHT22;12448;45.532;5.290;2022-09-06T06:31:39;23.80;81.30
24326;DHT22;12448;45.532;5.290;2022-09-06T06:34:06;23.80;81.10
24326;DHT22;12448;45.532;5.290;2022-09-06T06:36:34;23.80;81.10
24326;DHT22;12448;45.532;5.290;2022-09-06T06:39:01;23.90;81.00
24326;DHT22;12448;45.532;5.290;2022-09-06T06:41:29;23.90;80.80
24326;DHT22;12448;45.532;5.290;2022-09-06T06:44:01;23.80;80.70
24326;DHT22;12448;45.532;5.290;2022-09-06T06:46:30;23.90;80.70
24326;DHT22;12448;45.532;5.290;2022-09-06T06:48:56;23.80;80.60
24326;DHT22;12448;45.532;5.290;2022-09-06T06:51:24;23.80;80.70
24326;DHT22;12448;45.532;5.290;2022-09-06T06:53:50;23.80;80.80
24326;DHT22;12448;45.532;5.290;2022-09-06T06:58:42;23.90;80.70
24326;DHT22;12448;45.532;5.290;2022-09-06T07:01:09;24.00;80.60
24326;DHT22;12448;45.532;5.290;2022-09-06T07:03:35;24.10;80.40
24326;DHT22;12448;45.532;5.290;2022-09-06T07:06:02;24.00;80.10
24326;DHT22;12448;45.532;5.290;2022-09-06T07:08:27;24.20;79.90
24326;DHT22;12448;45.532;5.290;2022-09-06T07:10:53;24.20;79.80
24326;DHT22;12448;45.532;5.290;2022-09-06T07:13:19;24.30;79.60
24326;DHT22;12448;45.532;5.290;2022-09-06T07:15:44;24.30;79.20
24326;DHT22;12448;45.532;5.290;2022-09-06T07:18:10;24.30;79.00
24326;DHT22;12448;45.532;5.290;2022-09-06T07:20:36;24.40;79.00
24326;DHT22;12448;45.532;5.290;2022-09-06T07:23:03;24.40;78.90
24326;DHT22;12448;45.532;5.290;2022-09-06T07:25:32;24.40;78.90
24326;DHT22;12448;45.532;5.290;2022-09-06T07:28:04;24.40;78.80
24326;DHT22;12448;45.532;5.290;2022-09-06T07:30:36;24.40;78.50
24326;DHT22;12448;45.532;5.290;2022-09-06T07:33:03;24.50;78.40
24326;DHT22;12448;45.532;5.290;2022-09-06T07:35:32;24.50;78.10
24326;DHT22;12448;45.532;5.290;2022-09-06T07:37:59;24.50;78.10
24326;DHT22;12448;45.532;5.290;2022-09-06T07:40:27;24.50;77.90
24326;DHT22;12448;45.532;5.290;2022-09-06T07:42:58;24.50;77.60
24326;DHT22;12448;45.532;5.290;2022-09-06T07:45:24;24.50;77.60
24326;DHT22;12448;45.532;5.290;2022-09-06T07:47:54;24.50;77.60
24326;DHT22;12448;45.532;5.290;2022-09-06T07:50:20;24.60;77.50
24326;DHT22;12448;45.532;5.290;2022-09-06T07:52:46;24.60;77.30
24326;DHT22;12448;45.532;5.290;2022-09-06T07:55:12;24.60;77.10
24326;DHT22;12448;45.532;5.290;2022-09-06T07:57:38;24.60;77.20
24326;DHT22;12448;45.532;5.290;2022-09-06T08:00:04;24.70;77.30
24326;DHT22;12448;45.532;5.290;2022-09-06T08:02:29;24.70;76.90
24326;DHT22;12448;45.532;5.290;2022-09-06T08:04:56;24.70;76.70
24326;DHT22;12448;45.532;5.290;2022-09-06T08:07:21;24.80;76.50
24326;DHT22;12448;45.532;5.290;2022-09-06T08:09:49;24.90;76.10
24326;DHT22;12448;45.532;5.290;2022-09-06T08:12:14;24.90;75.90
24326;DHT22;12448;45.532;5.290;2022-09-06T08:14:40;24.90;75.60
24326;DHT22;12448;45.532;5.290;2022-09-06T08:17:06;25.00;75.30
24326;DHT22;12448;45.532;5.290;2022-09-06T08:19:31;25.00;75.10
24326;DHT22;12448;45.532;5.290;2022-09-06T08:21:58;25.00;74.90
24326;DHT22;12448;45.532;5.290;2022-09-06T08:24:25;25.00;74.30
24326;DHT22;12448;45.532;5.290;2022-09-06T08:26:51;25.00;74.10
24326;DHT22;12448;45.532;5.290;2022-09-06T08:29:16;25.10;73.50
24326;DHT22;12448;45.532;5.290;2022-09-06T08:31:44;25.10;73.40
24326;DHT22;12448;45.532;5.290;2022-09-06T08:34:10;25.10;72.60
24326;DHT22;12448;45.532;5.290;2022-09-06T08:36:40;25.20;72.60
24326;DHT22;12448;45.532;5.290;2022-09-06T08:39:07;25.20;72.30
24326;DHT22;12448;45.532;5.290;2022-09-06T08:41:45;25.20;72.10
24326;DHT22;12448;45.532;5.290;2022-09-06T08:44:14;25.30;71.60
24326;DHT22;12448;45.532;5.290;2022-09-06T08:46:50;25.30;71.30
24326;DHT22;12448;45.532;5.290;2022-09-06T08:49:17;25.30;70.60
24326;DHT22;12448;45.532;5.290;2022-09-06T08:52:04;25.30;70.60
24326;DHT22;12448;45.532;5.290;2022-09-06T09:00:21;24.80;70.80
24326;DHT22;12448;45.532;5.290;2022-09-06T09:03:08;25.30;71.10
24326;DHT22;12448;45.532;5.290;2022-09-06T09:05:36;25.40;70.40
24326;DHT22;12448;45.532;5.290;2022-09-06T09:13:09;25.50;69.60
24326;DHT22;12448;45.532;5.290;2022-09-06T09:15:38;25.50;69.40
24326;DHT22;12448;45.532;5.290;2022-09-06T09:18:04;25.50;69.30
24326;DHT22;12448;45.532;5.290;2022-09-06T09:20:30;25.50;69.10
24326;DHT22;12448;45.532;5.290;2022-09-06T09:22:56;25.60;69.50
24326;DHT22;12448;45.532;5.290;2022-09-06T09:25:22;25.60;69.30
24326;DHT22;12448;45.532;5.290;2022-09-06T09:27:51;25.70;69.30
24326;DHT22;12448;45.532;5.290;2022-09-06T09:30:24;25.80;69.10
24326;DHT22;12448;45.532;5.290;2022-09-06T09:32:51;25.90;68.50
24326;DHT22;12448;45.532;5.290;2022-09-06T09:35:33;25.90;68.10
24326;DHT22;12448;45.532;5.290;2022-09-06T09:38:04;25.90;67.10
24326;DHT22;12448;45.532;5.290;2022-09-06T09:45:43;26.00;66.90
24326;DHT22;12448;45.532;5.290;2022-09-06T09:48:22;26.00;67.20
24326;DHT22;12448;45.532;5.290;2022-09-06T09:50:49;26.00;66.60
24326;DHT22;12448;45.532;5.290;2022-09-06T09:53:18;26.10;66.50
24326;DHT22;12448;45.532;5.290;2022-09-06T09:55:46;26.20;66.00
24326;DHT22;12448;45.532;5.290;2022-09-06T09:58:38;26.20;65.90
24326;DHT22;12448;45.532;5.290;2022-09-06T10:01:25;26.30;64.70
24326;DHT22;12448;45.532;5.290;2022-09-06T10:03:51;26.30;64.40
24326;DHT22;12448;45.532;5.290;2022-09-06T10:06:25;26.20;64.20
24326;DHT22;12448;45.532;5.290;2022-09-06T10:08:51;26.20;65.10
24326;DHT22;12448;45.532;5.290;2022-09-06T10:11:46;26.20;65.70
24326;DHT22;12448;45.532;5.290;2022-09-06T10:14:27;26.30;65.20
24326;DHT22;12448;45.532;5.290;2022-09-06T10:16:53;26.40;64.30
24326;DHT22;12448;45.532;5.290;2022-09-06T10:19:41;26.50;63.70
24326;DHT22;12448;45.532;5.290;2022-09-06T10:27:14;26.60;61.10
24326;DHT22;12448;45.532;5.290;2022-09-06T10:29:52;26.70;61.50
24326;DHT22;12448;45.532;5.290;2022-09-06T10:35:15;26.90;59.30
24326;DHT22;12448;45.532;5.290;2022-09-06T10:37:52;26.90;59.90
24326;DHT22;12448;45.532;5.290;2022-09-06T10:40:44;26.90;59.70
24326;DHT22;12448;45.532;5.290;2022-09-06T10:43:19;27.00;59.30
24326;DHT22;12448;45.532;5.290;2022-09-06T10:46:03;27.00;59.50
24326;DHT22;12448;45.532;5.290;2022-09-06T10:48:44;27.10;59.00
24326;DHT22;12448;45.532;5.290;2022-09-06T10:51:32;27.10;58.50
24326;DHT22;12448;45.532;5.290;2022-09-06T10:54:08;27.20;58.50
24326;DHT22;12448;45.532;5.290;2022-09-06T10:56:57;27.20;57.80
24326;DHT22;12448;45.532;5.290;2022-09-06T11:02:32;27.30;58.40
24326;DHT22;12448;45.532;5.290;2022-09-06T11:05:05;27.40;58.00
24326;DHT22;12448;45.532;5.290;2022-09-06T11:07:36;27.40;58.00
24326;DHT22;12448;45.532;5.290;2022-09-06T11:10:23;27.50;58.30
24326;DHT22;12448;45.532;5.290;2022-09-06T11:15:24;27.60;58.90
24326;DHT22;12448;45.532;5.290;2022-09-06T11:20:40;27.70;57.30
24326;DHT22;12448;45.532;5.290;2022-09-06T11:28:51;27.90;57.30
24326;DHT22;12448;45.532;5.290;2022-09-06T11:31:26;27.90;57.40
24326;DHT22;12448;45.532;5.290;2022-09-06T11:34:25;28.00;56.10
24326;DHT22;12448;45.532;5.290;2022-09-06T11:36:57;28.10;55.90
24326;DHT22;12448;45.532;5.290;2022-09-06T11:41:58;28.10;56.20
24326;DHT22;12448;45.532;5.290;2022-09-06T11:47:44;28.20;55.70
24326;DHT22;12448;45.532;5.290;2022-09-06T11:55:37;28.20;55.70
24326;DHT22;12448;45.532;5.290;2022-09-06T11:58:09;28.30;55.10
24326;DHT22;12448;45.532;5.290;2022-09-06T12:00:36;28.40;55.70
24326;DHT22;12448;45.532;5.290;2022-09-06T12:03:07;28.50;56.00
24326;DHT22;12448;45.532;5.290;2022-09-06T12:08:57;28.60;55.40
24326;DHT22;12448;45.532;5.290;2022-09-06T12:14:39;28.60;54.90
24326;DHT22;12448;45.532;5.290;2022-09-06T12:25:18;28.90;55.70
24326;DHT22;12448;45.532;5.290;2022-09-06T12:28:04;29.00;54.60
24326;DHT22;12448;45.532;5.290;2022-09-06T12:30:38;29.10;54.60
24326;DHT22;12448;45.532;5.290;2022-09-06T12:33:35;29.00;54.70
24326;DHT22;12448;45.532;5.290;2022-09-06T12:36:18;29.10;54.50
24326;DHT22;12448;45.532;5.290;2022-09-06T12:38:59;29.20;54.20
24326;DHT22;12448;45.532;5.290;2022-09-06T12:41:27;29.20;54.10
24326;DHT22;12448;45.532;5.290;2022-09-06T12:43:54;29.20;54.60
24326;DHT22;12448;45.532;5.290;2022-09-06T12:46:23;29.30;54.70
24326;DHT22;12448;45.532;5.290;2022-09-06T12:51:31;29.50;54.00
24326;DHT22;12448;45.532;5.290;2022-09-06T12:54:00;29.40;54.00
24326;DHT22;12448;45.532;5.290;2022-09-06T12:56:28;29.50;53.80
24326;DHT22;12448;45.532;5.290;2022-09-06T12:59:20;29.50;53.70
24326;DHT22;12448;45.532;5.290;2022-09-06T13:01:59;29.60;53.50
24326;DHT22;12448;45.532;5.290;2022-09-06T13:07:05;29.50;54.30
24326;DHT22;12448;45.532;5.290;2022-09-06T13:09:33;29.50;54.00
24326;DHT22;12448;45.532;5.290;2022-09-06T13:12:08;29.50;53.90
24326;DHT22;12448;45.532;5.290;2022-09-06T13:14:40;29.60;53.80
24326;DHT22;12448;45.532;5.290;2022-09-06T13:17:05;29.50;53.60
24326;DHT22;12448;45.532;5.290;2022-09-06T13:21:57;29.80;54.00
24326;DHT22;12448;45.532;5.290;2022-09-06T13:24:26;29.80;52.50
24326;DHT22;12448;45.532;5.290;2022-09-06T13:27:32;29.90;52.40
24326;DHT22;12448;45.532;5.290;2022-09-06T13:30:07;29.90;52.00
24326;DHT22;12448;45.532;5.290;2022-09-06T13:32:34;30.00;52.80
24326;DHT22;12448;45.532;5.290;2022-09-06T13:35:01;30.00;52.90
24326;DHT22;12448;45.532;5.290;2022-09-06T13:37:30;30.00;52.40
24326;DHT22;12448;45.532;5.290;2022-09-06T13:39:56;30.10;52.40
24326;DHT22;12448;45.532;5.290;2022-09-06T13:44:51;30.20;52.00
24326;DHT22;12448;45.532;5.290;2022-09-06T13:47:17;30.30;51.70
24326;DHT22;12448;45.532;5.290;2022-09-06T13:49:42;30.30;51.80
24326;DHT22;12448;45.532;5.290;2022-09-06T13:52:08;30.40;51.30
24326;DHT22;12448;45.532;5.290;2022-09-06T13:54:34;30.10;51.40
24326;DHT22;12448;45.532;5.290;2022-09-06T13:57:01;30.50;51.70
24326;DHT22;12448;45.532;5.290;2022-09-06T13:59:26;30.50;51.70
24326;DHT22;12448;45.532;5.290;2022-09-06T14:02:01;30.60;51.60
24326;DHT22;12448;45.532;5.290;2022-09-06T14:04:27;30.60;51.10
24326;DHT22;12448;45.532;5.290;2022-09-06T14:06:53;30.50;51.30
24326;DHT22;12448;45.532;5.290;2022-09-06T14:09:19;30.40;51.30
24326;DHT22;12448;45.532;5.290;2022-09-06T14:11:45;30.30;51.30
24326;DHT22;12448;45.532;5.290;2022-09-06T14:14:10;30.10;51.70
24326;DHT22;12448;45.532;5.290;2022-09-06T14:16:37;30.10;52.00
24326;DHT22;12448;45.532;5.290;2022-09-06T14:19:03;30.00;52.00
24326;DHT22;12448;45.532;5.290;2022-09-06T14:21:30;29.90;52.20
24326;DHT22;12448;45.532;5.290;2022-09-06T14:23:56;29.90;52.60
24326;DHT22;12448;45.532;5.290;2022-09-06T14:26:23;29.80;52.80
24326;DHT22;12448;45.532;5.290;2022-09-06T14:28:49;29.70;52.90
24326;DHT22;12448;45.532;5.290;2022-09-06T14:31:18;29.60;53.20
24326;DHT22;12448;45.532;5.290;2022-09-06T14:33:44;29.50;53.40
24326;DHT22;12448;45.532;5.290;2022-09-06T14:36:12;29.40;53.60
24326;DHT22;12448;45.532;5.290;2022-09-06T14:38:40;29.40;53.90
24326;DHT22;12448;45.532;5.290;2022-09-06T14:41:07;29.30;54.10
24326;DHT22;12448;45.532;5.290;2022-09-06T14:43:34;29.20;54.10
24326;DHT22;12448;45.532;5.290;2022-09-06T14:46:07;29.10;54.10
24326;DHT22;12448;45.532;5.290;2022-09-06T14:48:34;29.10;54.40
24326;DHT22;12448;45.532;5.290;2022-09-06T14:51:26;29.00;54.70
24326;DHT22;12448;45.532;5.290;2022-09-06T14:53:55;28.90;54.90
24326;DHT22;12448;45.532;5.290;2022-09-06T14:56:22;28.80;55.10
24326;DHT22;12448;45.532;5.290;2022-09-06T14:58:48;28.80;55.20
24326;DHT22;12448;45.532;5.290;2022-09-06T15:03:43;28.60;55.20
24326;DHT22;12448;45.532;5.290;2022-09-06T15:06:11;28.60;55.50
24326;DHT22;12448;45.532;5.290;2022-09-06T15:08:37;28.50;55.70
24326;DHT22;12448;45.532;5.290;2022-09-06T15:11:04;28.40;55.90
24326;DHT22;12448;45.532;5.290;2022-09-06T15:13:36;28.30;56.10
24326;DHT22;12448;45.532;5.290;2022-09-06T15:16:03;28.20;56.40
24326;DHT22;12448;45.532;5.290;2022-09-06T15:18:30;28.20;56.70
24326;DHT22;12448;45.532;5.290;2022-09-06T15:20:56;28.10;56.90
24326;DHT22;12448;45.532;5.290;2022-09-06T15:23:22;28.00;57.00
24326;DHT22;12448;45.532;5.290;2022-09-06T15:25:51;28.00;57.10
24326;DHT22;12448;45.532;5.290;2022-09-06T15:28:17;28.00;57.30
24326;DHT22;12448;45.532;5.290;2022-09-06T15:30:46;27.90;57.50
24326;DHT22;12448;45.532;5.290;2022-09-06T15:33:13;27.80;57.70
24326;DHT22;12448;45.532;5.290;2022-09-06T15:35:42;27.80;57.90
24326;DHT22;12448;45.532;5.290;2022-09-06T15:38:10;27.80;58.10
24326;DHT22;12448;45.532;5.290;2022-09-06T15:40:37;27.70;58.30
24326;DHT22;12448;45.532;5.290;2022-09-06T15:43:03;27.70;58.40
24326;DHT22;12448;45.532;5.290;2022-09-06T15:45:29;27.60;58.40
24326;DHT22;12448;45.532;5.290;2022-09-06T15:47:55;27.60;58.70
24326;DHT22;12448;45.532;5.290;2022-09-06T15:50:21;27.50;58.90
24326;DHT22;12448;45.532;5.290;2022-09-06T15:52:48;27.50;59.10
24326;DHT22;12448;45.532;5.290;2022-09-06T15:55:14;27.40;59.60
24326;DHT22;12448;45.532;5.290;2022-09-06T15:57:58;27.30;60.00
24326;DHT22;12448;45.532;5.290;2022-09-06T16:00:24;27.20;60.50
24326;DHT22;12448;45.532;5.290;2022-09-06T16:02:50;27.10;61.00
24326;DHT22;12448;45.532;5.290;2022-09-06T16:05:17;27.00;61.00
24326;DHT22;12448;45.532;5.290;2022-09-06T16:07:42;27.00;61.30
24326;DHT22;12448;45.532;5.290;2022-09-06T16:10:10;27.00;61.40
24326;DHT22;12448;45.532;5.290;2022-09-06T16:12:39;27.00;61.40
24326;DHT22;12448;45.532;5.290;2022-09-06T16:15:06;27.00;61.40
24326;DHT22;12448;45.532;5.290;2022-09-06T16:17:31;27.00;61.30
24326;DHT22;12448;45.532;5.290;2022-09-06T16:19:57;27.00;61.20
24326;DHT22;12448;45.532;5.290;2022-09-06T16:22:26;27.10;61.40
24326;DHT22;12448;45.532;5.290;2022-09-06T16:24:52;27.10;61.70
24326;DHT22;12448;45.532;5.290;2022-09-06T16:27:17;27.00;62.10
24326;DHT22;12448;45.532;5.290;2022-09-06T16:29:43;27.00;62.30
24326;DHT22;12448;45.532;5.290;2022-09-06T16:32:09;27.00;62.30
24326;DHT22;12448;45.532;5.290;2022-09-06T16:34:35;27.00;62.40
24326;DHT22;12448;45.532;5.290;2022-09-06T16:37:04;27.00;62.70
24326;DHT22;12448;45.532;5.290;2022-09-06T16:39:34;27.00;63.80
24326;DHT22;12448;45.532;5.290;2022-09-06T16:42:00;27.00;64.60
24326;DHT22;12448;45.532;5.290;2022-09-06T16:44:26;26.80;65.00
24326;DHT22;12448;45.532;5.290;2022-09-06T16:46:53;26.50;65.60
24326;DHT22;12448;45.532;5.290;2022-09-06T16:49:20;26.60;66.70
24326;DHT22;12448;45.532;5.290;2022-09-06T16:51:48;26.50;67.30
24326;DHT22;12448;45.532;5.290;2022-09-06T16:54:14;26.40;67.80
24326;DHT22;12448;45.532;5.290;2022-09-06T16:56:40;26.30;68.00
24326;DHT22;12448;45.532;5.290;2022-09-06T16:59:08;26.30;68.00
24326;DHT22;12448;45.532;5.290;2022-09-06T17:01:35;26.30;68.20
24326;DHT22;12448;45.532;5.290;2022-09-06T17:04:02;26.30;68.10
24326;DHT22;12448;45.532;5.290;2022-09-06T17:06:30;26.30;68.00
24326;DHT22;12448;45.532;5.290;2022-09-06T17:08:57;26.30;67.90
24326;DHT22;12448;45.532;5.290;2022-09-06T17:11:24;26.30;67.80
24326;DHT22;12448;45.532;5.290;2022-09-06T17:13:50;26.30;67.80
24326;DHT22;12448;45.532;5.290;2022-09-06T17:16:20;26.30;67.90
24326;DHT22;12448;45.532;5.290;2022-09-06T17:19:05;26.30;68.10
24326;DHT22;12448;45.532;5.290;2022-09-06T17:21:32;26.30;68.50
24326;DHT22;12448;45.532;5.290;2022-09-06T17:23:58;26.20;68.70
24326;DHT22;12448;45.532;5.290;2022-09-06T17:26:27;26.20;68.80
24326;DHT22;12448;45.532;5.290;2022-09-06T17:28:53;26.20;68.80